Time;durP1;ratioP1;P1;durP2;ratioP2;P2;SDS_P1;SDS_P2;PMS_P1;PMS_P2;Temp;Humidity;BMP_temperature;BMP_pressure;BME280_temperature;BME280_humidity;BME280_pressure;Samples;Min_cycle;Max_cycle;Signal;HPM_P1;HPM_P2
2022/08/27 00:02:07;;;;;;;4.55;1.73;;;16.40;99.90;;;;;;5130857;27;20046;-75
2022/08/27 00:04:34;;;;;;;4.40;1.80;;;16.40;99.90;;;;;;5132952;27;20120;-76
2022/08/27 00:07:00;;;;;;;2.78;1.70;;;16.40;99.90;;;;;;5125682;27;20149;-75
2022/08/27 00:09:27;;;;;;;4.47;1.88;;;16.50;99.90;;;;;;5124583;27;20767;-75
2022/08/27 00:11:53;;;;;;;2.60;1.95;;;16.40;99.90;;;;;;5126381;27;20070;-75
2022/08/27 00:14:19;;;;;;;3.88;1.98;;;16.40;99.90;;;;;;5114039;27;20903;-75
2022/08/27 00:16:45;;;;;;;3.50;1.80;;;16.40;99.90;;;;;;5132494;27;20041;-75
2022/08/27 00:19:10;;;;;;;3.95;1.95;;;16.50;99.90;;;;;;5129002;27;20042;-75
2022/08/27 00:21:37;;;;;;;2.05;1.85;;;16.50;99.90;;;;;;5132472;27;20774;-76
2022/08/27 00:24:03;;;;;;;9.68;2.58;;;16.50;99.90;;;;;;5129323;27;20118;-75
2022/08/27 00:26:29;;;;;;;2.72;1.90;;;16.50;99.90;;;;;;5132066;27;20497;-75
2022/08/27 00:28:56;;;;;;;2.67;1.80;;;16.50;99.90;;;;;;5129688;27;20046;-75
2022/08/27 00:31:21;;;;;;;5.63;2.15;;;16.50;99.90;;;;;;5129772;27;20139;-75
2022/08/27 00:33:47;;;;;;;2.97;1.88;;;16.50;99.90;;;;;;5131268;27;20039;-76
2022/08/27 00:36:13;;;;;;;3.95;1.85;;;16.50;99.90;;;;;;5131410;27;20099;-76
2022/08/27 00:38:40;;;;;;;4.15;1.80;;;16.50;99.90;;;;;;5133450;27;20121;-75
2022/08/27 00:41:09;;;;;;;3.92;1.80;;;16.50;99.90;;;;;;5126308;27;20058;-75
2022/08/27 00:44:05;;;;;;;4.32;1.80;;;16.50;99.90;;;;;;5113054;27;20127;-75
2022/08/27 00:46:38;;;;;;;5.03;2.15;;;16.50;99.90;;;;;;5103214;27;20085;-75
2022/08/27 00:49:15;;;;;;;3.38;2.08;;;16.40;99.90;;;;;;5131567;27;20892;-75
2022/08/27 00:51:41;;;;;;;2.80;1.98;;;16.40;99.90;;;;;;5133709;27;20043;-75
2022/08/27 00:54:08;;;;;;;3.60;1.80;;;16.40;99.90;;;;;;5131998;27;20108;-75
2022/08/27 00:56:39;;;;;;;2.67;2.13;;;16.30;99.90;;;;;;5133044;27;20042;-75
2022/08/27 00:59:05;;;;;;;3.83;2.00;;;16.30;99.90;;;;;;5131668;27;20050;-75
2022/08/27 01:01:33;;;;;;;5.38;2.30;;;16.20;99.90;;;;;;5098259;27;20431;-75
2022/08/27 01:04:01;;;;;;;3.72;2.13;;;16.20;99.90;;;;;;5131919;27;20924;-75
2022/08/27 01:06:35;;;;;;;4.35;1.85;;;16.20;99.90;;;;;;5131760;27;20053;-75
2022/08/27 01:09:06;;;;;;;4.28;2.45;;;16.00;99.90;;;;;;5132971;27;20076;-75
2022/08/27 01:11:32;;;;;;;4.45;2.35;;;15.90;99.90;;;;;;5135022;27;20049;-75
2022/08/27 01:13:59;;;;;;;3.72;2.45;;;16.00;99.90;;;;;;5131680;27;20746;-75
2022/08/27 01:16:31;;;;;;;3.05;2.28;;;16.20;99.90;;;;;;5131464;27;20068;-74
2022/08/27 01:18:59;;;;;;;2.42;1.95;;;16.20;99.90;;;;;;5131147;27;20126;-76
2022/08/27 01:21:35;;;;;;;7.35;2.60;;;16.20;99.90;;;;;;5125869;27;20158;-75
2022/08/27 01:24:19;;;;;;;6.05;2.45;;;16.20;99.90;;;;;;5132461;27;20054;-75
2022/08/27 01:26:45;;;;;;;7.30;3.20;;;16.20;99.90;;;;;;5116433;27;20485;-76
2022/08/27 01:29:12;;;;;;;5.03;2.72;;;16.20;99.90;;;;;;5132208;27;20142;-76
2022/08/27 01:31:38;;;;;;;6.30;2.35;;;16.20;99.90;;;;;;5128158;27;20125;-75
2022/08/27 01:34:05;;;;;;;4.53;2.25;;;16.20;99.90;;;;;;5119866;27;20045;-75
2022/08/27 01:36:32;;;;;;;2.45;1.88;;;16.20;99.90;;;;;;5129377;27;20043;-75
2022/08/27 01:38:58;;;;;;;3.38;1.95;;;16.60;99.90;;;;;;5122653;27;20089;-75
2022/08/27 01:41:24;;;;;;;3.60;1.80;;;16.30;99.90;;;;;;5137099;27;20046;-75
2022/08/27 01:43:51;;;;;;;5.00;2.30;;;15.90;99.90;;;;;;5136751;27;20042;-75
2022/08/27 01:46:27;;;;;;;4.00;2.10;;;16.20;99.90;;;;;;5138206;27;20054;-76
2022/08/27 01:48:54;;;;;;;6.18;2.70;;;16.20;99.90;;;;;;5134832;27;20050;-76
2022/08/27 01:51:20;;;;;;;3.53;1.92;;;16.10;99.90;;;;;;5132820;27;20038;-75
2022/08/27 01:53:46;;;;;;;4.72;2.25;;;16.10;99.90;;;;;;5135937;27;20042;-75
2022/08/27 01:56:12;;;;;;;3.28;1.95;;;16.10;99.90;;;;;;5133349;27;20043;-75
2022/08/27 01:58:38;;;;;;;4.32;2.47;;;16.10;99.90;;;;;;5137104;27;20051;-75
2022/08/27 02:01:08;;;;;;;3.28;2.30;;;16.10;99.90;;;;;;5121945;27;20051;-75
2022/08/27 02:03:36;;;;;;;2.85;2.30;;;16.00;99.90;;;;;;5134421;27;20066;-75
2022/08/27 02:06:07;;;;;;;3.63;1.98;;;16.00;99.90;;;;;;5132020;27;20046;-75
2022/08/27 02:08:33;;;;;;;3.92;2.30;;;16.00;99.90;;;;;;5137145;27;20149;-75
2022/08/27 02:10:59;;;;;;;6.18;2.45;;;16.30;99.90;;;;;;5131076;27;20139;-75
2022/08/27 02:13:26;;;;;;;2.05;1.73;;;15.90;99.90;;;;;;5132107;27;20043;-75
2022/08/27 02:15:52;;;;;;;4.97;2.00;;;15.90;99.90;;;;;;5130310;27;20042;-75
2022/08/27 02:18:17;;;;;;;3.28;1.85;;;15.90;99.90;;;;;;5116639;27;20047;-75
2022/08/27 02:20:45;;;;;;;3.65;2.05;;;17.00;99.90;;;;;;5117199;27;20038;-75
2022/08/27 02:23:12;;;;;;;6.07;2.08;;;15.80;99.90;;;;;;5127345;27;20146;-75
2022/08/27 02:25:38;;;;;;;5.90;2.08;;;15.80;99.90;;;;;;5115318;27;20068;-75
2022/08/27 02:28:05;;;;;;;3.83;2.15;;;15.70;99.90;;;;;;5125087;27;20115;-75
2022/08/27 02:30:33;;;;;;;2.53;1.90;;;15.80;99.90;;;;;;5138379;27;20042;-75
2022/08/27 02:33:01;;;;;;;5.30;2.50;;;15.70;99.90;;;;;;5131778;27;20112;-75
2022/08/27 02:35:28;;;;;;;4.53;2.20;;;15.70;99.90;;;;;;5124392;27;20117;-75
2022/08/27 02:37:54;;;;;;;4.55;3.03;;;15.70;99.90;;;;;;5139586;27;20070;-75
2022/08/27 02:40:21;;;;;;;2.90;1.95;;;15.70;99.90;;;;;;5138503;27;20251;-76
2022/08/27 02:42:47;;;;;;;2.85;2.20;;;15.60;99.90;;;;;;5140171;27;20217;-75
2022/08/27 02:45:14;;;;;;;2.88;2.03;;;15.60;99.90;;;;;;5139375;27;20491;-76
2022/08/27 02:47:40;;;;;;;4.00;2.47;;;15.60;99.90;;;;;;5122250;27;20058;-75
2022/08/27 02:50:07;;;;;;;3.75;2.30;;;15.50;99.90;;;;;;5124793;27;20051;-75
2022/08/27 02:52:33;;;;;;;4.30;2.33;;;15.50;99.90;;;;;;5121781;27;20057;-75
2022/08/27 02:54:59;;;;;;;2.60;1.80;;;15.50;99.90;;;;;;5128418;27;20051;-75
2022/08/27 02:57:25;;;;;;;3.45;2.50;;;15.50;99.90;;;;;;5120740;27;20039;-75
2022/08/27 02:59:51;;;;;;;9.85;2.78;;;15.50;99.90;;;;;;5122079;27;20757;-75
2022/08/27 03:02:17;;;;;;;3.88;2.00;;;15.50;99.90;;;;;;5127410;27;20131;-75
2022/08/27 03:04:43;;;;;;;3.78;2.53;;;15.60;99.90;;;;;;5139689;27;20053;-76
2022/08/27 03:07:09;;;;;;;4.05;2.17;;;15.50;99.90;;;;;;5138958;27;20046;-75
2022/08/27 03:09:35;;;;;;;1.80;1.70;;;15.60;99.90;;;;;;5110262;27;20558;-75
2022/08/27 03:12:01;;;;;;;4.15;1.83;;;16.80;99.90;;;;;;5140017;27;20055;-76
2022/08/27 03:14:27;;;;;;;7.65;2.05;;;15.60;99.90;;;;;;5139684;27;20130;-75
2022/08/27 03:16:54;;;;;;;3.83;2.65;;;15.60;99.90;;;;;;5139840;27;20050;-75
2022/08/27 03:19:20;;;;;;;3.55;1.85;;;15.60;99.90;;;;;;5128695;27;20151;-75
2022/08/27 03:21:47;;;;;;;2.55;1.85;;;15.60;99.90;;;;;;5128852;27;20138;-75
2022/08/27 03:24:13;;;;;;;4.85;1.92;;;15.60;99.90;;;;;;5140019;27;20680;-75
2022/08/27 03:26:39;;;;;;;3.72;1.92;;;15.70;99.90;;;;;;5136250;27;20161;-75
2022/08/27 03:29:06;;;;;;;4.38;2.53;;;15.70;99.90;;;;;;5140124;27;20051;-75
2022/08/27 03:31:32;;;;;;;3.10;2.00;;;15.70;99.90;;;;;;5135430;27;20054;-75
2022/08/27 03:34:06;;;;;;;8.07;3.17;;;15.70;99.90;;;;;;5134186;27;20109;-75
2022/08/27 03:36:32;;;;;;;2.92;2.40;;;15.70;99.90;;;;;;5104648;27;20768;-75
2022/08/27 03:38:58;;;;;;;2.92;1.98;;;15.70;99.90;;;;;;5138726;27;20150;-75
2022/08/27 03:41:24;;;;;;;4.43;1.92;;;15.70;99.90;;;;;;5135798;27;20043;-75
2022/08/27 03:43:51;;;;;;;6.32;2.50;;;15.80;99.90;;;;;;5137831;27;20049;-75
2022/08/27 03:46:19;;;;;;;3.78;2.00;;;15.80;99.90;;;;;;5133124;27;20050;-74
2022/08/27 03:48:45;;;;;;;6.57;1.70;;;15.80;99.90;;;;;;5136485;27;20057;-75
2022/08/27 03:51:12;;;;;;;9.43;2.10;;;15.70;99.90;;;;;;5136316;27;20047;-75
2022/08/27 03:53:40;;;;;;;5.55;2.15;;;15.70;99.90;;;;;;5129761;27;21622;-76
2022/08/27 03:56:07;;;;;;;2.83;1.92;;;15.80;99.90;;;;;;5131118;27;20051;-76
2022/08/27 03:58:34;;;;;;;4.95;2.78;;;15.70;99.90;;;;;;5123314;27;20088;-75
2022/08/27 04:01:00;;;;;;;3.42;2.42;;;15.80;99.90;;;;;;5130549;27;20114;-75
2022/08/27 04:03:26;;;;;;;3.85;2.03;;;15.70;99.90;;;;;;5129202;27;20122;-75
2022/08/27 04:05:55;;;;;;;4.68;1.70;;;15.80;99.90;;;;;;5123754;27;20045;-75
2022/08/27 04:08:22;;;;;;;5.10;2.28;;;15.70;99.90;;;;;;5122058;27;20043;-75
2022/08/27 04:10:49;;;;;;;3.85;1.70;;;15.70;99.90;;;;;;5131389;27;20042;-75
2022/08/27 04:13:16;;;;;;;4.38;2.22;;;15.70;99.90;;;;;;5125429;27;20034;-75
2022/08/27 04:15:47;;;;;;;2.67;2.05;;;15.70;99.90;;;;;;5111782;27;20723;-75
2022/08/27 04:18:15;;;;;;;2.45;1.92;;;15.70;99.90;;;;;;5135790;27;20145;-76
2022/08/27 04:20:46;;;;;;;5.47;2.08;;;15.70;99.90;;;;;;5130695;27;20801;-75
2022/08/27 04:23:12;;;;;;;2.38;1.40;;;15.80;99.90;;;;;;5139777;27;20049;-75
2022/08/27 04:25:42;;;;;;;5.00;2.10;;;15.80;99.90;;;;;;5126455;27;20714;-76
2022/08/27 04:28:09;;;;;;;2.83;1.83;;;15.80;99.90;;;;;;5131713;27;20082;-76
2022/08/27 04:30:38;;;;;;;3.63;1.90;;;15.70;99.90;;;;;;5124207;27;20085;-76
2022/08/27 04:33:04;;;;;;;3.05;2.33;;;15.70;99.90;;;;;;5120695;27;20129;-76
2022/08/27 04:35:30;;;;;;;4.80;1.67;;;15.70;99.90;;;;;;5120775;27;20406;-76
2022/08/27 04:37:56;;;;;;;2.72;2.17;;;15.60;99.90;;;;;;5133452;27;20047;-76
2022/08/27 04:41:18;;;;;;;11.63;2.65;;;15.60;99.90;;;;;;5129353;27;20054;-76
2022/08/27 04:43:07;;;;;;;5.35;2.00;;;15.50;99.90;;;;;;5119784;27;20043;-76
2022/08/27 04:45:40;;;;;;;1.90;1.77;;;15.50;99.90;;;;;;5134372;27;20046;-76
2022/08/27 04:48:06;;;;;;;;;;;15.40;99.90;;;;;;5125351;27;20171;-76
2022/08/27 04:50:32;;;;;;;3.72;1.92;;;15.30;99.90;;;;;;5133705;27;20441;-76
2022/08/27 04:52:57;;;;;;;4.05;2.17;;;15.30;99.90;;;;;;5138957;27;20522;-76
2022/08/27 04:55:23;;;;;;;7.50;2.10;;;15.20;99.90;;;;;;5117381;27;20083;-76
2022/08/27 04:57:49;;;;;;;5.70;2.10;;;15.20;99.90;;;;;;5116602;27;20051;-76
2022/08/27 05:00:15;;;;;;;3.85;2.15;;;15.20;99.90;;;;;;5134768;27;20078;-76
2022/08/27 05:02:40;;;;;;;3.85;1.70;;;15.10;99.90;;;;;;5136191;27;20038;-77
2022/08/27 05:05:06;;;;;;;2.63;1.92;;;15.10;99.90;;;;;;5135000;27;20051;-76
2022/08/27 05:07:32;;;;;;;4.07;1.77;;;15.10;99.90;;;;;;5132396;27;20131;-76
2022/08/27 05:09:58;;;;;;;3.53;2.28;;;15.10;99.90;;;;;;5128378;27;20049;-76
2022/08/27 05:12:23;;;;;;;2.42;1.77;;;15.10;99.90;;;;;;5138579;27;20148;-76
2022/08/27 05:14:49;;;;;;;2.38;1.75;;;13.80;99.90;;;;;;5134687;27;20493;-76
2022/08/27 05:17:14;;;;;;;3.55;2.17;;;14.00;99.90;;;;;;5129264;27;20347;-76
2022/08/27 05:19:40;;;;;;;4.25;2.28;;;15.10;99.90;;;;;;5133752;27;20053;-76
2022/08/27 05:22:06;;;;;;;2.58;1.92;;;15.10;99.90;;;;;;5130269;27;20074;-75
2022/08/27 05:24:32;;;;;;;2.25;1.80;;;15.10;99.90;;;;;;5136458;27;20051;-75
2022/08/27 05:26:58;;;;;;;2.20;1.98;;;15.10;99.90;;;;;;5130062;27;20092;-75
2022/08/27 05:29:23;;;;;;;3.40;2.20;;;15.10;99.90;;;;;;5110167;27;20042;-75
2022/08/27 05:31:49;;;;;;;3.30;2.03;;;15.20;99.90;;;;;;5134301;27;20092;-75
2022/08/27 05:34:15;;;;;;;3.60;1.73;;;15.20;99.90;;;;;;5142866;27;20486;-74
2022/08/27 05:36:41;;;;;;;4.22;2.10;;;15.40;99.90;;;;;;5141474;27;20047;-76
2022/08/27 05:39:07;;;;;;;6.38;2.28;;;15.50;99.90;;;;;;5141998;27;20057;-75
2022/08/27 05:41:34;;;;;;;3.00;2.00;;;15.60;99.90;;;;;;5122804;27;20588;-76
2022/08/27 05:44:03;;;;;;;3.28;1.55;;;15.80;99.90;;;;;;5127205;27;20039;-75
2022/08/27 05:46:29;;;;;;;6.10;2.40;;;15.90;99.90;;;;;;5129159;27;20508;-74
2022/08/27 05:48:57;;;;;;;3.05;1.85;;;16.10;99.90;;;;;;5103617;27;20050;-75
2022/08/27 05:51:30;;;;;;;9.23;1.95;;;16.20;99.90;;;;;;5127869;27;20796;-76
2022/08/27 05:53:58;;;;;;;3.92;1.73;;;16.30;99.90;;;;;;5114457;27;20042;-76
2022/08/27 05:56:26;;;;;;;3.03;2.45;;;16.50;99.90;;;;;;5137352;27;20951;-76
2022/08/27 06:01:40;;;;;;;4.13;1.70;;;16.80;99.90;;;;;;5134403;27;20106;-75
2022/08/27 06:04:08;;;;;;;2.85;2.22;;;16.30;99.90;;;;;;5136104;27;20046;-75
2022/08/27 06:06:36;;;;;;;4.57;2.42;;;17.20;99.90;;;;;;5137013;27;20111;-76
2022/08/27 06:09:01;;;;;;;6.85;1.92;;;17.30;99.90;;;;;;5112896;27;20054;-75
2022/08/27 06:11:27;;;;;;;2.83;1.48;;;17.50;99.90;;;;;;5132130;27;20049;-76
2022/08/27 06:13:54;;;;;;;1.98;1.42;;;17.60;99.90;;;;;;5108368;27;20049;-76
2022/08/27 06:16:21;;;;;;;3.97;1.92;;;17.70;99.90;;;;;;5105385;27;20043;-75
2022/08/27 06:18:47;;;;;;;5.38;1.73;;;17.80;99.90;;;;;;5129420;27;20047;-76
2022/08/27 06:21:15;;;;;;;2.80;1.63;;;17.80;99.90;;;;;;5124681;27;20117;-76
2022/08/27 06:23:41;;;;;;;2.70;1.73;;;17.70;99.90;;;;;;5138878;27;20035;-78
2022/08/27 06:26:10;;;;;;;4.25;1.42;;;17.70;99.90;;;;;;5123893;27;20616;-77
2022/08/27 06:28:40;;;;;;;2.63;1.60;;;17.80;99.90;;;;;;5138375;27;20137;-76
2022/08/27 06:31:07;;;;;;;4.28;1.75;;;17.80;99.90;;;;;;5131134;27;20454;-77
2022/08/27 06:33:33;;;;;;;3.35;2.40;;;17.90;99.90;;;;;;5130735;27;20042;-76
2022/08/27 06:36:00;;;;;;;8.88;1.75;;;18.00;99.90;;;;;;5132673;27;20046;-76
2022/08/27 06:38:27;;;;;;;3.80;1.83;;;18.10;99.90;;;;;;5135632;27;20042;-75
2022/08/27 06:40:53;;;;;;;4.57;2.10;;;18.10;99.90;;;;;;5132202;27;20042;-76
2022/08/27 06:43:19;;;;;;;2.80;1.48;;;18.20;99.90;;;;;;5133632;27;20070;-77
2022/08/27 06:45:45;;;;;;;6.10;2.05;;;18.30;99.90;;;;;;5132953;27;20050;-75
2022/08/27 06:48:11;;;;;;;5.68;2.05;;;18.40;99.90;;;;;;5114568;27;20454;-76
2022/08/27 06:50:38;;;;;;;3.63;1.65;;;18.50;99.90;;;;;;5111470;27;20039;-76
2022/08/27 06:53:04;;;;;;;3.33;1.60;;;18.60;99.90;;;;;;5133934;27;20039;-77
2022/08/27 06:55:30;;;;;;;4.47;1.90;;;18.60;99.90;;;;;;5133203;27;20121;-78
2022/08/27 06:57:56;;;;;;;11.25;2.00;;;18.60;99.90;;;;;;5133612;27;20049;-76
2022/08/27 07:00:21;;;;;;;3.42;2.03;;;18.60;99.90;;;;;;5133078;27;20050;-77
2022/08/27 07:02:48;;;;;;;5.03;1.60;;;18.60;99.90;;;;;;5133251;27;20031;-76
2022/08/27 07:05:14;;;;;;;3.30;1.40;;;18.50;99.90;;;;;;5135340;27;20042;-77
2022/08/27 07:07:39;;;;;;;1.70;1.52;;;18.60;99.90;;;;;;5130169;27;20373;-76
2022/08/27 07:10:06;;;;;;;6.32;1.90;;;18.60;99.90;;;;;;5120853;27;20537;-76
2022/08/27 07:12:32;;;;;;;8.40;1.90;;;18.70;99.90;;;;;;5130684;27;20050;-76
2022/08/27 07:14:57;;;;;;;5.22;2.35;;;18.80;99.90;;;;;;5137779;27;20042;-76
2022/08/27 07:17:23;;;;;;;2.92;1.45;;;18.90;99.90;;;;;;5130524;27;20043;-76
2022/08/27 07:19:48;;;;;;;3.67;1.48;;;19.10;99.90;;;;;;5127525;27;20485;-78
2022/08/27 07:22:14;;;;;;;4.50;1.58;;;19.20;99.90;;;;;;5133573;27;20039;-78
2022/08/27 07:24:40;;;;;;;7.30;2.78;;;19.40;99.90;;;;;;5128822;27;20069;-77
2022/08/27 07:27:07;;;;;;;4.65;1.73;;;19.40;99.90;;;;;;5130021;27;20051;-76
2022/08/27 07:29:33;;;;;;;5.03;1.67;;;19.50;99.90;;;;;;5135696;27;20117;-77
2022/08/27 07:31:59;;;;;;;2.65;1.60;;;19.80;99.90;;;;;;5139072;27;20505;-78
2022/08/27 07:34:25;;;;;;;2.95;1.67;;;20.00;99.90;;;;;;5134765;27;20043;-79
2022/08/27 07:36:50;;;;;;;3.08;1.45;;;20.20;99.90;;;;;;5112639;27;20038;-78
2022/08/27 07:39:16;;;;;;;7.72;1.75;;;20.60;99.90;;;;;;5137491;27;20327;-79
2022/08/27 07:44:26;;;;;;;5.80;2.00;;;20.80;99.90;;;;;;5134468;27;20534;-77
2022/08/27 07:46:54;;;;;;;2.50;1.38;;;20.50;99.90;;;;;;5137812;27;20038;-78
2022/08/27 07:49:22;;;;;;;3.97;1.80;;;20.40;99.90;;;;;;5138198;27;20584;-77
2022/08/27 07:51:48;;;;;;;3.00;1.67;;;20.10;99.90;;;;;;5137386;27;20042;-76
2022/08/27 07:54:15;;;;;;;4.00;1.60;;;20.10;99.90;;;;;;5113000;27;20106;-76
2022/08/27 07:56:41;;;;;;;5.82;2.22;;;20.10;99.90;;;;;;5116668;27;20046;-78
2022/08/27 07:59:07;;;;;;;5.50;2.40;;;20.20;99.90;;;;;;5136734;27;20125;-78
2022/08/27 08:01:33;;;;;;;6.65;2.30;;;20.10;99.90;;;;;;5132660;27;20158;-79
2022/08/27 08:03:59;;;;;;;2.17;1.50;;;19.90;99.90;;;;;;5120915;27;20055;-79
2022/08/27 08:06:25;;;;;;;4.85;1.60;;;19.90;99.90;;;;;;5137211;27;20136;-77
2022/08/27 08:08:51;;;;;;;4.70;2.15;;;19.70;99.90;;;;;;5122079;27;20053;-77
2022/08/27 08:11:17;;;;;;;4.30;1.80;;;19.60;99.90;;;;;;5121407;27;20046;-77
2022/08/27 08:13:44;;;;;;;4.80;1.80;;;19.50;99.90;;;;;;5133006;27;20480;-77
2022/08/27 08:16:10;;;;;;;4.88;2.05;;;19.40;99.90;;;;;;5135882;27;20265;-78
2022/08/27 08:18:36;;;;;;;3.22;1.85;;;19.90;99.90;;;;;;5137229;27;20046;-78
2022/08/27 08:21:06;;;;;;;4.72;1.67;;;21.40;98.30;;;;;;5138559;27;20065;-78
2022/08/27 08:23:32;;;;;;;4.53;2.00;;;22.80;96.40;;;;;;5101853;27;20149;-77
2022/08/27 08:25:59;;;;;;;5.20;1.48;;;23.50;96.40;;;;;;5119300;27;20502;-78
2022/08/27 08:28:26;;;;;;;3.17;1.30;;;24.30;94.90;;;;;;5117474;27;20053;-77
2022/08/27 08:30:53;;;;;;;5.82;1.88;;;24.30;94.60;;;;;;5137723;27;20042;-80
2022/08/27 08:33:19;;;;;;;5.43;1.67;;;24.70;93.60;;;;;;5133504;27;20042;-79
2022/08/27 08:35:45;;;;;;;3.22;1.33;;;24.90;94.10;;;;;;5115364;27;20039;-78
2022/08/27 08:38:10;;;;;;;1.70;1.25;;;25.30;94.30;;;;;;5135512;27;20046;-77
2022/08/27 08:40:42;;;;;;;3.92;1.73;;;24.30;93.80;;;;;;5138519;27;20042;-78
2022/08/27 08:43:39;;;;;;;5.18;1.83;;;23.50;94.00;;;;;;5136954;27;20122;-79
2022/08/27 08:46:10;;;;;;;8.68;2.35;;;23.00;92.90;;;;;;5126649;27;20058;-79
2022/08/27 08:48:41;;;;;;;6.03;2.00;;;22.40;94.30;;;;;;5133109;27;20050;-78
2022/08/27 08:51:21;;;;;;;4.97;1.67;;;22.00;94.50;;;;;;5111532;27;20083;-79
2022/08/27 08:54:00;;;;;;;4.35;1.55;;;21.80;95.00;;;;;;5101677;27;20044;-77
2022/08/27 08:56:52;;;;;;;4.00;1.73;;;21.70;95.10;;;;;;5137457;27;20779;-79
2022/08/27 08:59:26;;;;;;;4.65;1.58;;;21.80;94.80;;;;;;5118116;27;20084;-77
2022/08/27 09:01:53;;;;;;;3.72;1.20;;;22.00;95.00;;;;;;5134769;27;20047;-79
2022/08/27 09:04:20;;;;;;;6.95;1.90;;;21.90;94.70;;;;;;5136413;27;20118;-79
2022/08/27 09:07:11;;;;;;;3.13;1.23;;;21.80;94.70;;;;;;5133724;27;20058;-77
2022/08/27 09:09:52;;;;;;;3.38;1.65;;;21.70;94.80;;;;;;5132227;27;20109;-80
2022/08/27 09:12:25;;;;;;;3.83;1.85;;;21.70;94.80;;;;;;5133276;27;20054;-79
2022/08/27 09:14:59;;;;;;;2.83;1.10;;;21.80;94.60;;;;;;5106182;27;20047;-77
2022/08/27 09:17:25;;;;;;;6.32;1.70;;;21.90;94.80;;;;;;5125351;27;20085;-76
2022/08/27 09:19:51;;;;;;;6.70;1.70;;;21.90;94.50;;;;;;5130526;27;20145;-79
2022/08/27 09:22:23;;;;;;;3.20;1.73;;;21.90;94.50;;;;;;5138551;27;20130;-77
2022/08/27 09:25:19;;;;;;;3.35;1.50;;;22.20;94.40;;;;;;5136731;27;20051;-77
2022/08/27 09:27:46;;;;;;;5.18;1.63;;;22.80;93.60;;;;;;5123106;27;20039;-77
2022/08/27 09:30:21;;;;;;;5.00;1.83;;;23.40;93.50;;;;;;5127357;27;20125;-79
2022/08/27 09:32:59;;;;;;;4.10;2.63;;;22.80;91.70;;;;;;5137510;27;20049;-80
2022/08/27 09:35:27;;;;;;;3.60;1.23;;;22.10;91.50;;;;;;5128875;27;20051;-78
2022/08/27 09:37:54;;;;;;;5.18;1.63;;;22.10;92.70;;;;;;5133781;27;20046;-78
2022/08/27 09:40:31;;;;;;;3.22;1.85;;;22.20;92.60;;;;;;5139333;27;20087;-77
2022/08/27 09:43:15;;;;;;;8.18;2.60;;;22.30;92.60;;;;;;5138831;27;20050;-79
2022/08/27 09:45:54;;;;;;;4.95;1.40;;;22.40;92.40;;;;;;5137525;27;20043;-80
2022/08/27 09:48:31;;;;;;;3.70;1.60;;;22.40;93.20;;;;;;5139265;27;20636;-77
2022/08/27 09:51:00;;;;;;;2.25;1.60;;;21.90;93.00;;;;;;5132413;27;20054;-77
2022/08/27 09:53:43;;;;;;;6.55;1.50;;;21.80;93.60;;;;;;5135251;27;20070;-77
2022/08/27 09:56:20;;;;;;;3.72;1.60;;;21.40;94.00;;;;;;5138780;27;20229;-76
2022/08/27 09:58:53;;;;;;;3.03;1.40;;;21.20;94.50;;;;;;5133231;27;20042;-79
2022/08/27 10:01:23;;;;;;;7.60;2.08;;;21.20;94.50;;;;;;5136174;27;20134;-79
2022/08/27 10:03:49;;;;;;;2.25;1.60;;;21.20;94.50;;;;;;5129159;27;20081;-77
2022/08/27 10:06:36;;;;;;;3.50;1.38;;;21.00;94.80;;;;;;5137084;27;20121;-78
2022/08/27 10:09:16;;;;;;;4.55;1.40;;;20.80;94.70;;;;;;5140698;27;20051;-77
2022/08/27 10:11:51;;;;;;;5.07;1.52;;;20.90;95.10;;;;;;5143589;27;20051;-78
2022/08/27 10:14:28;;;;;;;4.90;1.40;;;21.00;95.00;;;;;;5133537;27;20061;-80
2022/08/27 10:17:06;;;;;;;4.78;1.52;;;20.90;94.30;;;;;;5137707;27;20050;-78
2022/08/27 10:19:51;;;;;;;4.47;2.13;;;20.90;94.40;;;;;;5123842;27;20746;-78
2022/08/27 10:22:41;;;;;;;4.35;1.65;;;20.90;94.60;;;;;;5139484;27;20045;-81
2022/08/27 10:25:26;;;;;;;2.42;1.60;;;21.10;94.60;;;;;;5127788;27;20896;-83
2022/08/27 10:28:13;;;;;;;5.72;1.92;;;21.20;94.50;;;;;;5131234;27;20222;-81
2022/08/27 10:30:47;;;;;;;4.28;1.73;;;21.10;93.80;;;;;;5104368;27;20050;-79
2022/08/27 10:33:29;;;;;;;3.78;1.67;;;21.10;94.20;;;;;;5134716;27;20074;-78
2022/08/27 10:36:08;;;;;;;3.22;1.55;;;21.40;94.40;;;;;;5136105;27;20054;-80
2022/08/27 10:38:49;;;;;;;4.38;1.35;;;21.60;93.90;;;;;;5133323;27;20130;-79
2022/08/27 10:41:23;;;;;;;2.50;1.33;;;21.90;93.30;;;;;;5133535;27;20055;-80
2022/08/27 10:44:07;;;;;;;3.45;1.52;;;21.90;93.90;;;;;;5115776;27;20257;-76
2022/08/27 10:46:48;;;;;;;2.65;1.25;;;21.70;94.00;;;;;;5126555;27;20180;-81
2022/08/27 10:49:59;;;;;;;8.25;1.35;;;21.50;94.40;;;;;;5128359;27;20303;-79
2022/08/27 10:52:46;;;;;;;7.85;1.85;;;21.10;94.50;;;;;;5138644;27;20162;-79
2022/08/27 10:55:25;;;;;;;5.85;2.17;;;20.80;94.80;;;;;;5140088;27;20050;-80
2022/08/27 10:58:10;;;;;;;2.90;1.67;;;20.80;94.40;;;;;;5121308;27;20039;-80
2022/08/27 11:00:56;;;;;;;5.45;1.20;;;20.90;94.60;;;;;;5119970;27;20039;-79
2022/08/27 11:03:25;;;;;;;5.45;1.63;;;21.00;94.70;;;;;;5132267;27;20053;-79
2022/08/27 11:05:52;;;;;;;4.03;1.30;;;20.90;94.40;;;;;;5121239;27;20126;-82
2022/08/27 11:08:37;;;;;;;2.67;1.33;;;21.00;94.60;;;;;;5102004;27;20058;-79
2022/08/27 11:11:14;;;;;;;3.78;1.35;;;20.90;94.20;;;;;;5137914;27;20046;-81
2022/08/27 11:13:50;;;;;;;2.55;1.50;;;20.80;94.30;;;;;;5134612;27;20569;-81
2022/08/27 11:16:42;;;;;;;4.55;1.40;;;20.80;94.40;;;;;;5129065;27;20053;-82
2022/08/27 11:19:29;;;;;;;4.20;1.33;;;20.90;94.50;;;;;;5129488;27;20082;-82
2022/08/27 11:22:04;;;;;;;3.90;1.38;;;21.00;94.70;;;;;;5126327;27;20150;-80
2022/08/27 11:24:53;;;;;;;6.38;1.48;;;21.20;94.80;;;;;;5117571;27;20538;-77
2022/08/27 11:27:24;;;;;;;4.53;1.42;;;21.30;94.60;;;;;;5128313;27;20588;-80
2022/08/27 11:30:15;;;;;;;5.13;1.63;;;21.40;94.70;;;;;;5130237;27;20054;-82
2022/08/27 11:33:06;;;;;;;3.38;1.48;;;21.40;94.80;;;;;;5134356;27;20514;-77
2022/08/27 11:36:08;;;;;;;3.75;1.10;;;21.30;94.60;;;;;;5127657;27;20082;-81
2022/08/27 11:38:55;;;;;;;2.27;1.00;;;21.10;94.70;;;;;;5094209;27;20046;-80
2022/08/27 11:41:30;;;;;;;4.07;1.35;;;21.10;95.00;;;;;;5130169;27;20734;-80
2022/08/27 11:43:58;;;;;;;3.53;1.95;;;21.00;94.90;;;;;;5132434;27;20142;-79
2022/08/27 11:46:27;;;;;;;2.95;1.20;;;21.00;94.90;;;;;;5122409;27;20053;-79
2022/08/27 11:49:00;;;;;;;8.70;1.95;;;20.90;94.60;;;;;;5110956;27;20047;-76
2022/08/27 11:51:35;;;;;;;3.28;1.20;;;20.90;94.40;;;;;;5127001;27;20141;-78
2022/08/27 11:54:20;;;;;;;2.17;1.50;;;21.00;94.50;;;;;;5132560;27;21081;-79
2022/08/27 11:56:46;;;;;;;9.15;1.50;;;21.10;94.60;;;;;;5126007;27;20060;-81
2022/08/27 11:59:25;;;;;;;6.88;1.70;;;21.10;94.10;;;;;;5131583;27;20497;-78
2022/08/27 12:01:53;;;;;;;2.88;1.42;;;21.40;94.00;;;;;;5135546;27;20117;-84
2022/08/27 12:04:38;;;;;;;1.92;1.13;;;21.60;93.90;;;;;;5103967;27;20046;-81
2022/08/27 12:07:13;;;;;;;2.30;1.02;;;21.60;93.00;;;;;;5123577;27;20527;-80
2022/08/27 12:10:27;;;;;;;3.58;1.40;;;21.80;92.90;;;;;;5122399;27;20054;-77
2022/08/27 12:13:08;;;;;;;4.45;1.10;;;21.80;91.90;;;;;;5098493;27;20291;-80
2022/08/27 12:16:03;;;;;;;5.22;1.65;;;22.00;91.90;;;;;;5129107;27;20054;-81
2022/08/27 12:18:35;;;;;;;4.20;1.25;;;21.70;91.40;;;;;;5119156;27;20146;-78
2022/08/27 12:21:24;;;;;;;3.42;1.50;;;21.50;92.20;;;;;;5128281;27;20388;-79
2022/08/27 12:24:20;;;;;;;2.40;1.02;;;21.60;92.20;;;;;;5109946;27;20138;-78
2022/08/27 12:27:12;;;;;;;3.55;1.40;;;21.90;92.60;;;;;;5130525;27;20046;-78
2022/08/27 12:29:57;;;;;;;3.30;1.13;;;22.40;92.10;;;;;;5132282;27;20906;-79
2022/08/27 12:32:35;;;;;;;1.27;1.00;;;22.80;91.90;;;;;;5129995;27;20039;-79
2022/08/27 12:35:09;;;;;;;1.92;1.00;;;22.60;91.60;;;;;;5115180;27;20139;-78
2022/08/27 12:37:44;;;;;;;2.80;1.30;;;22.40;92.30;;;;;;5127929;27;20034;-79
2022/08/27 12:40:24;;;;;;;2.30;1.35;;;22.20;91.70;;;;;;5132176;27;20068;-78
2022/08/27 12:42:51;;;;;;;9.32;1.45;;;22.40;93.00;;;;;;5126771;27;20045;-79
2022/08/27 12:45:26;;;;;;;1.92;1.30;;;22.20;92.50;;;;;;5129188;27;20121;-78
2022/08/27 12:47:54;;;;;;;2.67;1.08;;;22.30;91.70;;;;;;5130472;27;20082;-79
2022/08/27 12:50:26;;;;;;;5.47;2.63;;;22.60;91.90;;;;;;5132297;27;20130;-78
2022/08/27 12:53:20;;;;;;;2.25;1.15;;;22.60;91.10;;;;;;5133242;27;20030;-79
2022/08/27 12:55:58;;;;;;;3.70;1.23;;;22.40;90.90;;;;;;5129818;27;20057;-78
2022/08/27 12:58:51;;;;;;;4.05;1.52;;;22.00;90.60;;;;;;5132170;27;20054;-79
2022/08/27 13:01:35;;;;;;;1.75;1.38;;;22.00;90.90;;;;;;5125817;27;20043;-80
2022/08/27 13:04:01;;;;;;;2.15;1.67;;;22.10;91.80;;;;;;5131780;27;20139;-80
2022/08/27 13:06:31;;;;;;;2.22;1.13;;;22.00;92.00;;;;;;5130415;27;20149;-80
2022/08/27 13:09:00;;;;;;;2.33;1.00;;;21.80;92.00;;;;;;5113884;27;20046;-79
2022/08/27 13:11:32;;;;;;;5.80;1.40;;;21.70;92.30;;;;;;5132221;27;20046;-79
2022/08/27 13:14:10;;;;;;;3.85;1.20;;;21.90;92.40;;;;;;5130553;27;20078;-79